Stargate — D5CJ7 — position and weather

sailwx.info

Track history (hours):
 
Tides and Currents Weather Stations Pressure Air Temp Water Temp Dewpoint Dewpoint Depression Visibility Wind Speed Wind Dir Waves Ship Positions

Stargate

Last reported at 2018-Jun-01 04:04 UTC. Time now 2018-Jun-23 15:31 UTC.
Position N 36°52' E 001°52'.
Warning: this ship's position is 22 days out of date.

Length 169 m; draft 9.9 m.

Type: Cargo ship. MMSI: 636015713.

Date/timePositionNaut miles runAvg speedWind from/ knotsBaromVisibWave heightAir tempDewpointWater temp
2018-Jun-01 04:04N 36°52' E 001°52'113.5
2018-Jun-01 03:59N 36°52' E 001°50'1913.3
2018-Jun-01 02:33N 36°49' E 001°27'113.3
2018-Jun-01 02:30N 36°49' E 001°26'713.3
2018-Jun-01 02:00N 36°48' E 001°18'1013.4
2018-Jun-01 01:15N 36°46' E 001°05'313.4
2018-Jun-01 01:00N 36°46' E 001°01'1013.3
2018-Jun-01 00:15N 36°44' E 000°49'313.1
2018-Jun-01 00:00N 36°44' E 000°45'813.1
2018-May-31 23:25N 36°42' E 000°36'512.8
2018-May-31 23:00N 36°41' E 000°29'712.9
2018-May-31 22:30N 36°41' E 000°21'1012.9
2018-May-31 21:43N 36°39' E 000°09'412.7
2018-May-31 21:26N 36°38' E 000°04'612.8
2018-May-31 21:00N 36°37' W 000°03'1212.7
2018-May-31 20:05N 36°35' W 000°17'112.6
2018-May-31 20:00N 36°35' W 000°18'612.5
2018-May-31 19:30N 36°34' W 000°26'712.5
2018-May-31 18:58N 36°33' W 000°34'612.6
2018-May-31 18:30N 36°33' W 000°41'612.8
2018-May-31 18:00N 36°32' W 000°49'713.1
2018-May-31 17:28N 36°31' W 000°58'613.2
2018-May-31 17:00N 36°30' W 001°05'1013.1
2018-May-31 16:13N 36°28' W 001°18'312.9
2018-May-31 15:58N 36°27' W 001°22'813.8
2018-May-31 15:24N 36°26' W 001°31'18013.6
2018-May-31 02:08N 35°59' W 005°12'215.7
2018-May-31 02:00N 35°59' W 005°15'715.0
2018-May-31 01:30N 35°57' W 005°24'713.6
2018-May-31 01:00N 35°56' W 005°32'612.3
2018-May-31 00:30N 35°54' W 005°40'510.2
2018-May-30 23:59N 35°53' W 005°46'611.3
2018-May-30 23:30N 35°53' W 005°53'  
2018-May-28 10:09N 36°22' W 021°42'312.5
2018-May-28 09:56N 36°22' W 021°46'1612.4
2018-May-28 08:38N 36°22' W 022°06'712.2
2018-May-28 08:02N 36°22' W 022°15'111.9
2018-May-28 07:58N 36°22' W 022°16'1412.3
2018-May-28 06:50N 36°22' W 022°33'412.0
2018-May-28 06:29N 36°22' W 022°38'2212.1
2018-May-28 04:41N 36°21' W 023°05'611.9
2018-May-28 04:09N 36°21' W 023°13'212.0
2018-May-28 03:58N 36°21' W 023°16'1711.9
2018-May-28 02:33N 36°21' W 023°37'112.4
2018-May-28 02:30N 36°21' W 023°38'611.9
2018-May-28 02:00N 36°21' W 023°45'612.0
2018-May-28 01:30N 36°21' W 023°52'611.9
2018-May-28 01:00N 36°21' W 023°60'611.8
2018-May-28 00:30N 36°21' W 024°07'611.9
2018-May-28 00:00N 36°21' W 024°15'612.2
2018-May-27 23:30N 36°21' W 024°22'612.3
2018-May-27 23:00N 36°21' W 024°30'612.8
2018-May-27 22:30N 36°22' W 024°38'612.5
2018-May-27 22:00N 36°22' W 024°46'612.5
2018-May-27 21:30N 36°22' W 024°53'612.4
2018-May-27 21:00N 36°21' W 025°01'612.3
2018-May-27 20:30N 36°21' W 025°09'612.2
2018-May-27 20:00N 36°21' W 025°16'612.1
2018-May-27 19:30N 36°21' W 025°24'612.2
2018-May-27 19:00N 36°21' W 025°31'612.2
2018-May-27 18:30N 36°21' W 025°39'612.5
2018-May-27 18:00N 36°21' W 025°47'612.3
2018-May-27 17:30N 36°21' W 025°54'612.7
2018-May-27 17:00N 36°21' W 026°02'1412.9
2018-May-27 15:54N 36°21' W 026°20'4713.0
2018-May-27 12:19N 36°22' W 027°18'412.8
2018-May-27 11:59N 36°22' W 027°23'8512.4
2018-May-27 05:07N 36°22' W 029°08'311.8
2018-May-27 04:53N 36°22' W 029°12'512.1
2018-May-27 04:30N 36°23' W 029°17'612.4
2018-May-27 04:00N 36°23' W 029°25'  
Track history (hours):
 
Tides and Currents Weather Stations Pressure Air Temp Water Temp Dewpoint Dewpoint Depression Visibility Wind Speed Wind Dir Waves Ship Positions

Stargate

Last reported at 2018-Jun-01 04:04 UTC. Time now 2018-Jun-23 15:31 UTC.
Position N 36°52' E 001°52'.
Warning: this ship's position is 22 days out of date.

Length 169 m; draft 9.9 m.

Type: Cargo ship. MMSI: 636015713.

Date/timePositionNaut miles runAvg speedWind from/ knotsBaromVisibWave heightAir tempDewpointWater temp
2018-Jun-01 04:04N 36°52' E 001°52'113.5
2018-Jun-01 03:59N 36°52' E 001°50'1913.3
2018-Jun-01 02:33N 36°49' E 001°27'113.3
2018-Jun-01 02:30N 36°49' E 001°26'713.3
2018-Jun-01 02:00N 36°48' E 001°18'1013.4
2018-Jun-01 01:15N 36°46' E 001°05'313.4
2018-Jun-01 01:00N 36°46' E 001°01'1013.3
2018-Jun-01 00:15N 36°44' E 000°49'313.1
2018-Jun-01 00:00N 36°44' E 000°45'813.1
2018-May-31 23:25N 36°42' E 000°36'512.8
2018-May-31 23:00N 36°41' E 000°29'712.9
2018-May-31 22:30N 36°41' E 000°21'1012.9
2018-May-31 21:43N 36°39' E 000°09'412.7
2018-May-31 21:26N 36°38' E 000°04'612.8
2018-May-31 21:00N 36°37' W 000°03'1212.7
2018-May-31 20:05N 36°35' W 000°17'112.6
2018-May-31 20:00N 36°35' W 000°18'612.5
2018-May-31 19:30N 36°34' W 000°26'712.5
2018-May-31 18:58N 36°33' W 000°34'612.6
2018-May-31 18:30N 36°33' W 000°41'612.8
2018-May-31 18:00N 36°32' W 000°49'713.1
2018-May-31 17:28N 36°31' W 000°58'613.2
2018-May-31 17:00N 36°30' W 001°05'1013.1
2018-May-31 16:13N 36°28' W 001°18'312.9
2018-May-31 15:58N 36°27' W 001°22'813.8
2018-May-31 15:24N 36°26' W 001°31'18013.6
2018-May-31 02:08N 35°59' W 005°12'215.7
2018-May-31 02:00N 35°59' W 005°15'715.0
2018-May-31 01:30N 35°57' W 005°24'713.6
2018-May-31 01:00N 35°56' W 005°32'612.3
2018-May-31 00:30N 35°54' W 005°40'510.2
2018-May-30 23:59N 35°53' W 005°46'611.3
2018-May-30 23:30N 35°53' W 005°53'  
2018-May-28 10:09N 36°22' W 021°42'312.5
2018-May-28 09:56N 36°22' W 021°46'1612.4
2018-May-28 08:38N 36°22' W 022°06'712.2
2018-May-28 08:02N 36°22' W 022°15'111.9
2018-May-28 07:58N 36°22' W 022°16'1412.3
2018-May-28 06:50N 36°22' W 022°33'412.0
2018-May-28 06:29N 36°22' W 022°38'2212.1
2018-May-28 04:41N 36°21' W 023°05'611.9
2018-May-28 04:09N 36°21' W 023°13'212.0
2018-May-28 03:58N 36°21' W 023°16'1711.9
2018-May-28 02:33N 36°21' W 023°37'112.4
2018-May-28 02:30N 36°21' W 023°38'611.9
2018-May-28 02:00N 36°21' W 023°45'612.0
2018-May-28 01:30N 36°21' W 023°52'611.9
2018-May-28 01:00N 36°21' W 023°60'611.8
2018-May-28 00:30N 36°21' W 024°07'611.9
2018-May-28 00:00N 36°21' W 024°15'612.2
2018-May-27 23:30N 36°21' W 024°22'612.3
2018-May-27 23:00N 36°21' W 024°30'612.8
2018-May-27 22:30N 36°22' W 024°38'612.5
2018-May-27 22:00N 36°22' W 024°46'612.5
2018-May-27 21:30N 36°22' W 024°53'612.4
2018-May-27 21:00N 36°21' W 025°01'612.3
2018-May-27 20:30N 36°21' W 025°09'612.2
2018-May-27 20:00N 36°21' W 025°16'612.1
2018-May-27 19:30N 36°21' W 025°24'612.2
2018-May-27 19:00N 36°21' W 025°31'612.2
2018-May-27 18:30N 36°21' W 025°39'612.5
2018-May-27 18:00N 36°21' W 025°47'612.3
2018-May-27 17:30N 36°21' W 025°54'612.7
2018-May-27 17:00N 36°21' W 026°02'1412.9
2018-May-27 15:54N 36°21' W 026°20'4713.0
2018-May-27 12:19N 36°22' W 027°18'412.8
2018-May-27 11:59N 36°22' W 027°23'8512.4
2018-May-27 05:07N 36°22' W 029°08'311.8
2018-May-27 04:53N 36°22' W 029°12'512.1
2018-May-27 04:30N 36°23' W 029°17'612.4
2018-May-27 04:00N 36°23' W 029°25'  

Dump ship's entire track history